Time;durP1;ratioP1;P1;durP2;ratioP2;P2;SDS_P1;SDS_P2;PMS_P1;PMS_P2;Temp;Humidity;BMP_temperature;BMP_pressure;BME280_temperature;BME280_humidity;BME280_pressure;Samples;Min_cycle;Max_cycle;Signal;HPM_P1;HPM_P2
2022/01/28 00:00:19;;;;;;;11.68;5.28;;;;;;;-7.72;68.28;99178.72;4996120;28;20053;-78
2022/01/28 00:05:20;;;;;;;11.90;5.20;;;;;;;-7.67;67.99;99187.47;4996065;28;20062;-76
2022/01/28 00:07:48;;;;;;;10.43;4.85;;;;;;;-7.72;68.43;99163.50;5013348;28;20141;-77
2022/01/28 00:10:16;;;;;;;12.10;5.60;;;;;;;-7.59;68.66;99182.00;5013329;28;20100;-78
2022/01/28 00:39:36;;;;;;;12.95;4.90;;;;;;;-7.60;68.26;99165.91;4986447;28;20092;-79
2022/01/28 00:42:04;;;;;;;9.60;4.75;;;;;;;-7.59;68.55;99171.88;5020749;28;20056;-79
2022/01/28 00:44:32;;;;;;;10.73;5.47;;;;;;;-7.60;68.04;99157.44;5021075;28;20053;-80
2022/01/28 00:46:59;;;;;;;13.55;5.40;;;;;;;-7.65;68.41;99131.78;5021078;28;20053;-79
2022/01/28 00:49:26;;;;;;;12.23;5.70;;;;;;;-7.59;67.92;99143.97;5016934;28;20056;-80
2022/01/28 00:51:53;;;;;;;16.20;6.00;;;;;;;-7.60;68.56;99137.16;5017204;28;20076;-79
2022/01/28 00:54:20;;;;;;;14.70;5.57;;;;;;;-7.56;68.35;99146.72;4999214;28;20559;-79
2022/01/28 00:56:47;;;;;;;13.15;5.60;;;;;;;-7.56;68.30;99149.25;5020626;28;20056;-79
2022/01/28 00:59:15;;;;;;;15.07;6.10;;;;;;;-7.52;68.23;99144.47;5020425;28;20068;-78
2022/01/28 01:01:42;;;;;;;13.68;5.97;;;;;;;-7.47;68.33;99139.66;5017840;28;20049;-78
2022/01/28 01:04:10;;;;;;;17.17;6.68;;;;;;;-7.47;68.71;99121.91;5016741;28;20053;-80
2022/01/28 01:06:37;;;;;;;15.90;6.85;;;;;;;-7.48;68.75;99131.19;5017163;28;20099;-81
2022/01/28 01:09:05;;;;;;;16.05;6.18;;;;;;;-7.52;68.49;99124.16;5017453;28;20064;-79
2022/01/28 01:11:32;;;;;;;16.15;7.03;;;;;;;-7.50;68.46;99125.13;5018760;28;20058;-79
2022/01/28 01:13:59;;;;;;;20.05;8.13;;;;;;;-7.51;68.87;99130.97;5017739;28;20567;-80
2022/01/28 01:16:36;;;;;;;19.05;6.93;;;;;;;-7.51;68.62;99125.91;5017229;28;20521;-78
2022/01/28 01:21:40;;;;;;;17.48;7.18;;;;;;;-7.55;68.95;99112.94;5016372;28;20058;-78
2022/01/28 01:24:10;;;;;;;20.05;6.95;;;;;;;-7.55;68.65;99110.41;5016451;28;20065;-78
2022/01/28 01:26:40;;;;;;;16.83;6.70;;;;;;;-7.59;68.86;99118.59;5015782;28;20054;-78
2022/01/28 01:29:11;;;;;;;18.95;7.72;;;;;;;-7.77;69.23;99093.84;4998555;28;20324;-79
2022/01/28 01:31:41;;;;;;;15.45;7.00;;;;;;;-7.57;68.92;99117.94;5015887;28;20057;-80
2022/01/28 01:36:36;;;;;;;17.98;7.72;;;;;;;-7.62;68.85;99082.09;5015863;28;20132;-78
2022/01/28 01:39:04;;;;;;;18.60;7.68;;;;;;;-7.49;68.42;99100.63;5016100;28;20046;-78
2022/01/28 01:41:37;;;;;;;18.77;7.70;;;;;;;-7.50;69.00;99116.66;5016357;28;20056;-78
2022/01/28 01:44:17;;;;;;;19.15;7.53;;;;;;;-7.53;69.15;99109.69;5024088;28;20061;-78
2022/01/28 01:52:08;;;;;;;19.13;7.90;;;;;;;-7.45;68.84;99100.03;5028632;28;20058;-78
2022/01/28 01:54:38;;;;;;;20.65;7.60;;;;;;;-7.42;68.76;99090.06;5033007;28;20500;-78
2022/01/28 01:57:06;;;;;;;;;;;;;;;-7.45;68.88;99072.13;5005886;28;20061;-81
2022/01/28 01:59:34;;;;;;;17.63;7.40;;;;;;;-7.50;69.18;99069.31;5015245;28;19931;-79
2022/01/28 02:02:01;;;;;;;17.95;7.88;;;;;;;-7.46;69.48;99091.56;5015061;28;20058;-80
2022/01/28 02:04:28;;;;;;;19.33;7.82;;;;;;;-7.46;69.36;99086.50;5015240;28;20054;-80
2022/01/28 02:06:56;;;;;;;21.15;8.23;;;;;;;-7.41;69.20;99084.22;5015026;28;20056;-80
2022/01/28 02:09:23;;;;;;;20.65;8.88;;;;;;;-7.35;68.92;99083.75;4998396;28;20054;-80
2022/01/28 02:11:50;;;;;;;21.40;8.65;;;;;;;-7.44;69.37;99087.47;4997116;28;20054;-80
2022/01/28 02:14:18;;;;;;;21.48;8.88;;;;;;;-7.55;69.92;99058.03;4997500;28;20057;-80
2022/01/28 02:16:46;;;;;;;19.38;7.95;;;;;;;-7.44;70.02;99072.25;5002961;28;20050;-80
2022/01/28 02:19:13;;;;;;;21.33;8.93;;;;;;;-7.48;69.72;99070.28;5016964;28;20056;-80
2022/01/28 02:21:47;;;;;;;18.55;7.97;;;;;;;-7.38;69.83;99069.19;5034534;28;20029;-79
2022/01/28 02:24:17;;;;;;;22.63;9.43;;;;;;;-7.37;70.27;99065.00;5034855;28;20037;-80
2022/01/28 02:26:45;;;;;;;22.45;8.77;;;;;;;-7.41;69.79;99064.81;5010751;28;20829;-80
2022/01/28 02:29:15;;;;;;;19.27;8.48;;;;;;;-7.36;69.96;99065.06;5029076;28;20077;-80
2022/01/28 02:31:43;;;;;;;21.15;8.60;;;;;;;-7.37;70.14;99068.41;5027796;28;20504;-80
2022/01/28 02:34:11;;;;;;;22.63;8.98;;;;;;;-7.37;70.19;99062.47;5025750;28;20076;-81
2022/01/28 02:36:39;;;;;;;20.50;8.40;;;;;;;-7.26;70.76;99058.91;5001777;28;20061;-80
2022/01/28 02:39:06;;;;;;;25.65;9.27;;;;;;;-7.17;70.51;99061.13;5013962;28;20061;-80
2022/01/28 02:41:38;;;;;;;22.52;8.93;;;;;;;-7.24;70.19;99043.00;4996881;28;20061;-79
2022/01/28 02:44:18;;;;;;;23.80;9.52;;;;;;;-7.21;70.46;99038.09;5014046;28;20054;-81
2022/01/28 02:49:42;;;;;;;23.80;8.98;;;;;;;-7.21;70.25;99050.78;5013550;28;20316;-79
2022/01/28 02:52:18;;;;;;;22.90;10.20;;;;;;;-7.15;70.58;99036.72;5015982;28;20058;-79
2022/01/28 02:54:48;;;;;;;22.08;9.18;;;;;;;-7.25;70.34;99014.97;5015665;28;20115;-79
2022/01/28 02:57:21;;;;;;;20.02;9.20;;;;;;;-7.25;70.42;99012.44;5016221;28;20060;-79
2022/01/28 02:59:48;;;;;;;20.77;9.32;;;;;;;-7.07;70.55;99041.47;5019909;28;20061;-80
2022/01/28 03:02:15;;;;;;;22.80;9.32;;;;;;;-7.03;70.51;99040.88;5013478;28;20107;-80
2022/01/28 03:07:09;;;;;;;21.05;9.02;;;;;;;-6.92;70.43;99030.47;5013699;28;20073;-80
2022/01/28 03:10:02;;;;;;;20.58;8.80;;;;;;;-6.90;70.37;99039.94;5013521;28;20100;-80
2022/01/28 03:12:35;;;;;;;18.92;8.82;;;;;;;-6.87;70.92;99039.22;5011863;28;20061;-79
2022/01/28 03:15:06;;;;;;;22.10;9.43;;;;;;;-6.82;70.62;99020.94;5013330;28;20092;-79
2022/01/28 03:22:46;;;;;;;17.63;7.53;;;;;;;-6.79;70.06;99017.69;5013536;28;20604;-80
2022/01/28 03:25:15;;;;;;;18.13;8.38;;;;;;;-6.77;70.36;99030.47;5013157;28;20140;-81
2022/01/28 03:27:58;;;;;;;17.48;8.05;;;;;;;-6.79;70.15;99027.84;5013286;28;20108;-79
2022/01/28 03:30:25;;;;;;;20.38;8.23;;;;;;;-6.72;70.52;99031.63;5013242;28;20498;-79
2022/01/28 03:32:52;;;;;;;20.00;8.43;;;;;;;-6.76;70.24;99027.16;5012803;28;20429;-77
2022/01/28 03:35:32;;;;;;;18.50;7.85;;;;;;;-6.74;70.47;99010.34;5013376;28;20056;-79
2022/01/28 03:38:00;;;;;;;;;;;;;;;-6.72;69.90;99012.16;4996079;28;20104;-81
2022/01/28 03:40:35;;;;;;;15.40;7.03;;;;;;;-6.69;70.08;99012.38;5013204;28;19925;-80
2022/01/28 03:43:04;;;;;;;15.30;7.15;;;;;;;-6.63;70.25;99014.38;4996088;28;20049;-79
2022/01/28 03:45:32;;;;;;;13.52;6.43;;;;;;;-6.60;70.08;98996.78;4979032;28;20081;-79
2022/01/28 03:47:59;;;;;;;15.00;6.63;;;;;;;-6.67;70.05;98994.66;5013081;28;20505;-79
2022/01/28 03:50:26;;;;;;;16.77;7.05;;;;;;;-6.68;70.08;98998.88;5013247;28;20141;-80
2022/01/28 03:52:54;;;;;;;14.40;7.13;;;;;;;-6.68;70.62;99005.63;5013125;28;20059;-80
2022/01/28 03:55:21;;;;;;;15.98;7.32;;;;;;;-6.74;70.19;99006.13;5012924;28;20049;-78
2022/01/28 03:57:48;;;;;;;15.57;7.25;;;;;;;-6.82;70.58;98997.19;4979727;28;20145;-80
2022/01/28 04:00:16;;;;;;;16.10;7.10;;;;;;;-6.68;70.40;99001.41;5012643;28;20498;-80
2022/01/28 04:02:46;;;;;;;11.85;6.43;;;;;;;-6.66;70.16;98998.97;5016169;28;20054;-78
2022/01/28 04:13:19;;;;;;;12.10;6.10;;;;;;;-6.72;70.40;98963.03;5016905;28;20064;-78
2022/01/28 04:18:16;;;;;;;15.38;7.13;;;;;;;-6.73;70.16;98935.88;5016589;28;20085;-80
2022/01/28 04:20:43;;;;;;;15.55;6.93;;;;;;;-6.74;69.91;98944.28;5016773;28;20049;-80
2022/01/28 04:23:10;;;;;;;15.32;6.45;;;;;;;-6.62;70.13;98952.63;5017213;28;20065;-80
2022/01/28 04:25:38;;;;;;;14.65;6.47;;;;;;;-6.60;70.11;98964.63;4983441;28;20058;-80
2022/01/28 04:28:05;;;;;;;15.10;6.18;;;;;;;-6.54;70.31;98964.06;4996091;28;20465;-82
2022/01/28 04:30:32;;;;;;;14.77;6.45;;;;;;;-6.57;70.33;98942.72;4997351;28;20069;-79
2022/01/28 04:32:59;;;;;;;11.43;5.85;;;;;;;-6.49;70.19;98951.66;4999170;28;20054;-83
2022/01/28 04:35:27;;;;;;;14.80;6.68;;;;;;;-6.53;69.65;98962.41;4995830;28;20077;-84
2022/01/28 04:40:34;;;;;;;11.98;5.72;;;;;;;-6.48;69.55;98966.09;4996873;28;20082;-83
2022/01/28 04:43:10;;;;;;;10.57;5.75;;;;;;;-6.45;69.95;98969.69;4996991;28;20046;-83
2022/01/28 04:48:56;;;;;;;13.93;5.53;;;;;;;-6.67;69.63;98910.81;5005922;28;20089;-80
2022/01/28 04:51:30;;;;;;;13.70;6.40;;;;;;;-6.42;69.49;98956.25;5019193;28;20050;-83
2022/01/28 05:04:52;;;;;;;16.98;6.30;;;;;;;-6.36;69.82;98955.75;4996049;28;20116;-83
2022/01/28 05:13:17;;;;;;;15.60;6.32;;;;;;;-6.33;69.40;98953.34;4996353;28;20054;-82
2022/01/28 05:28:52;;;;;;;14.55;6.30;;;;;;;-6.26;69.47;98950.34;5010565;28;20089;-81
2022/01/28 05:31:20;;;;;;;13.23;6.35;;;;;;;-6.25;69.72;98947.91;4999594;28;20054;-82
2022/01/28 05:33:49;;;;;;;13.40;6.00;;;;;;;-6.22;69.19;98954.81;5001788;28;20050;-82
2022/01/28 05:36:16;;;;;;;11.10;5.95;;;;;;;-6.22;69.26;98950.59;4997900;28;20355;-81
2022/01/28 05:38:43;;;;;;;12.25;5.75;;;;;;;-6.30;69.52;98925.56;4996649;28;20592;-81
2022/01/28 05:41:11;;;;;;;14.65;5.75;;;;;;;-6.15;69.15;98936.59;4995438;28;20050;-81
2022/01/28 05:43:39;;;;;;;11.95;6.10;;;;;;;-6.21;69.11;98936.25;4976203;28;20434;-81
2022/01/28 05:46:07;;;;;;;14.20;5.90;;;;;;;-6.25;69.22;98930.09;4974970;28;20466;-85
2022/01/28 05:48:34;;;;;;;11.02;5.38;;;;;;;-6.10;69.38;98935.16;4975202;28;20058;-81
2022/01/28 05:51:01;;;;;;;12.23;5.85;;;;;;;-6.03;69.33;98931.28;4976057;28;20106;-82
2022/01/28 05:53:30;;;;;;;14.27;5.88;;;;;;;-6.07;68.78;98917.50;4976515;28;20050;-79
2022/01/28 05:55:57;;;;;;;12.93;5.50;;;;;;;-6.03;68.75;98933.81;4976172;28;20062;-80
2022/01/28 05:58:24;;;;;;;12.38;5.35;;;;;;;-6.09;68.75;98918.22;4974821;28;20113;-82
2022/01/28 06:00:52;;;;;;;11.25;5.82;;;;;;;-6.01;68.83;98920.38;4976055;28;20098;-83
2022/01/28 06:03:19;;;;;;;14.18;5.85;;;;;;;-5.98;68.44;98940.00;4975908;28;20058;-80
2022/01/28 06:05:48;;;;;;;12.10;6.03;;;;;;;-5.90;68.77;98953.13;4976134;28;20051;-82
2022/01/28 06:08:16;;;;;;;14.45;6.00;;;;;;;-5.91;68.46;98941.22;4992895;28;20502;-81
2022/01/28 06:10:43;;;;;;;12.48;5.60;;;;;;;-5.94;68.68;98925.81;4995077;28;20076;-81
2022/01/28 06:13:12;;;;;;;12.95;5.53;;;;;;;-6.01;68.54;98917.84;4992641;28;20050;-81
2022/01/28 06:15:43;;;;;;;12.55;6.15;;;;;;;-5.94;68.77;98908.00;4995659;28;20054;-82
2022/01/28 06:18:11;;;;;;;12.68;5.97;;;;;;;-5.84;68.47;98930.56;4995610;28;20042;-79
2022/01/28 06:20:38;;;;;;;14.05;6.45;;;;;;;-5.80;68.14;98923.16;4994789;28;20053;-81
2022/01/28 06:23:12;;;;;;;13.80;6.18;;;;;;;-5.79;67.70;98924.91;4994401;28;20522;-80
2022/01/28 06:25:39;;;;;;;16.35;6.18;;;;;;;-5.80;67.99;98924.84;4995140;28;20141;-81
2022/01/28 06:28:06;;;;;;;13.57;6.22;;;;;;;-5.78;68.29;98916.50;5012727;28;20061;-83
2022/01/28 06:30:33;;;;;;;16.92;6.40;;;;;;;-5.63;68.15;98924.06;5015098;28;20421;-83
2022/01/28 06:33:00;;;;;;;12.60;6.00;;;;;;;-5.70;67.96;98919.44;4996590;28;20482;-81
2022/01/28 06:35:27;;;;;;;12.88;6.15;;;;;;;-5.72;67.68;98903.22;5014121;28;20077;-83
2022/01/28 06:37:55;;;;;;;15.68;6.45;;;;;;;-5.72;68.15;98921.03;5014506;28;20490;-84
2022/01/28 06:40:22;;;;;;;14.50;6.35;;;;;;;-5.81;68.10;98890.91;4997014;28;20056;-82
2022/01/28 06:42:51;;;;;;;16.17;6.60;;;;;;;-5.71;68.04;98904.97;5014185;28;20148;-81
2022/01/28 06:45:18;;;;;;;13.05;5.78;;;;;;;-5.60;67.70;98926.75;5000522;28;20054;-81
2022/01/28 06:47:45;;;;;;;15.00;5.97;;;;;;;-5.49;67.63;98913.72;5012691;28;20049;-80
2022/01/28 06:50:12;;;;;;;15.60;7.15;;;;;;;-5.46;67.30;98907.13;5010257;28;20053;-82
2022/01/28 06:52:41;;;;;;;16.35;6.78;;;;;;;-5.31;67.35;98903.56;5016536;28;20054;-81
2022/01/28 06:55:12;;;;;;;14.48;6.15;;;;;;;-5.25;67.21;98892.06;5015566;28;20058;-82
2022/01/28 06:57:40;;;;;;;14.50;6.45;;;;;;;-5.33;66.89;98889.91;5021351;28;20049;-81
2022/01/28 07:00:09;;;;;;;14.25;6.40;;;;;;;-5.23;67.38;98907.38;5024435;28;20168;-82
2022/01/28 07:02:37;;;;;;;16.48;6.82;;;;;;;-5.23;67.33;98892.97;4997194;28;20081;-81
2022/01/28 07:05:05;;;;;;;14.55;6.53;;;;;;;-5.22;66.92;98904.06;4995689;28;20069;-84
2022/01/28 07:07:33;;;;;;;13.45;6.43;;;;;;;-5.20;67.54;98908.44;5013968;28;20110;-84
2022/01/28 07:10:00;;;;;;;15.52;7.18;;;;;;;-5.24;67.41;98903.97;5014054;28;20061;-81
2022/01/28 07:12:30;;;;;;;16.05;7.20;;;;;;;-5.21;67.39;98900.72;4998224;28;20048;-82
2022/01/28 07:14:57;;;;;;;15.68;6.40;;;;;;;-5.23;67.08;98894.66;5013677;28;20049;-82
2022/01/28 07:17:23;;;;;;;16.38;7.32;;;;;;;-5.29;67.62;98912.16;5011919;28;20504;-82
2022/01/28 07:19:50;;;;;;;20.17;8.05;;;;;;;-5.28;67.62;98901.22;5012363;28;20137;-82
2022/01/28 07:22:17;;;;;;;20.05;8.57;;;;;;;-5.33;67.34;98908.63;5014088;28;20042;-82
2022/01/28 07:24:44;;;;;;;18.75;8.20;;;;;;;-5.42;67.62;98875.94;5012758;28;20058;-81
2022/01/28 07:27:11;;;;;;;16.17;7.03;;;;;;;-5.18;67.09;98906.84;5011644;28;20092;-80
2022/01/28 07:29:38;;;;;;;19.45;7.60;;;;;;;-5.31;67.15;98883.22;5012662;28;20057;-81
2022/01/28 07:32:06;;;;;;;21.45;8.80;;;;;;;-5.18;67.17;98899.19;5013274;28;20068;-81
2022/01/28 07:34:33;;;;;;;19.13;8.38;;;;;;;-5.10;66.85;98912.28;5011784;28;20050;-80
2022/01/28 07:37:00;;;;;;;17.15;7.50;;;;;;;-5.06;66.95;98905.69;5012627;28;20054;-82
2022/01/28 07:39:28;;;;;;;21.13;9.10;;;;;;;-5.14;67.08;98887.50;5012379;28;20100;-81
2022/01/28 07:41:55;;;;;;;17.92;8.80;;;;;;;-4.96;67.20;98921.50;5012408;28;20144;-80
2022/01/28 07:44:22;;;;;;;24.83;8.02;;;;;;;-5.05;66.59;98899.81;5012231;28;20050;-80
2022/01/28 07:46:49;;;;;;;21.25;8.40;;;;;;;-5.01;66.97;98900.03;5012086;28;20096;-79
2022/01/28 07:49:17;;;;;;;21.05;8.48;;;;;;;-5.10;66.85;98880.88;5012227;28;20053;-79
2022/01/28 07:51:44;;;;;;;21.13;8.70;;;;;;;-5.04;66.64;98902.41;5013555;28;20042;-84
2022/01/28 07:54:10;;;;;;;20.65;8.15;;;;;;;-5.01;67.08;98896.59;5010766;28;20125;-80
2022/01/28 07:56:38;;;;;;;18.42;8.07;;;;;;;-4.83;66.90;98906.84;5011645;28;20104;-81
2022/01/28 07:59:04;;;;;;;20.08;8.02;;;;;;;-4.91;66.49;98901.34;5012573;28;20057;-83
2022/01/28 08:01:31;;;;;;;18.58;8.93;;;;;;;-4.91;66.69;98906.44;5012794;28;20065;-80
2022/01/28 08:03:58;;;;;;;20.35;8.30;;;;;;;-4.83;66.50;98904.28;5012785;28;20081;-80
2022/01/28 08:06:26;;;;;;;22.67;8.98;;;;;;;-4.95;66.48;98869.78;5011847;28;20054;-81
2022/01/28 08:08:54;;;;;;;20.88;8.82;;;;;;;-4.82;66.39;98904.38;5012443;28;20054;-81
2022/01/28 08:11:22;;;;;;;22.58;9.15;;;;;;;-4.84;67.06;98898.31;5012431;28;20064;-81
2022/01/28 08:13:49;;;;;;;20.42;8.48;;;;;;;-4.69;66.42;98890.50;5012848;28;20050;-86
2022/01/28 08:16:16;;;;;;;21.92;9.45;;;;;;;-4.64;66.41;98891.63;5012095;28;20042;-84
2022/01/28 08:18:43;;;;;;;22.17;9.07;;;;;;;-4.63;65.93;98879.75;5002251;28;20064;-81
2022/01/28 08:21:10;;;;;;;20.67;8.60;;;;;;;-4.51;66.39;98897.31;5017411;28;20058;-83
2022/01/28 08:23:37;;;;;;;21.70;9.25;;;;;;;-4.42;65.97;98887.53;5012171;28;20136;-83
2022/01/28 08:26:05;;;;;;;24.75;10.10;;;;;;;-4.52;65.61;98886.22;5012190;28;20073;-82
2022/01/28 08:28:31;;;;;;;22.13;9.07;;;;;;;-4.75;65.98;98870.72;5011533;28;20409;-84
2022/01/28 08:30:59;;;;;;;20.00;8.85;;;;;;;-4.55;66.07;98883.53;4994205;28;20057;-83
2022/01/28 08:33:27;;;;;;;23.90;9.57;;;;;;;-4.60;66.23;98867.16;5010892;28;20132;-85
2022/01/28 08:35:55;;;;;;;22.25;8.75;;;;;;;-4.57;66.30;98872.41;4992967;28;20053;-83
2022/01/28 08:38:27;;;;;;;24.92;9.90;;;;;;;-4.42;66.10;98892.66;5012120;28;20136;-81
2022/01/28 08:40:56;;;;;;;19.30;8.60;;;;;;;-4.27;65.52;98860.22;4992990;28;20476;-82
2022/01/28 08:43:23;;;;;;;21.98;9.55;;;;;;;-4.14;65.23;98876.94;5013100;28;20050;-81
2022/01/28 08:45:51;;;;;;;20.60;8.48;;;;;;;-4.05;64.97;98859.50;5010734;28;20119;-85
2022/01/28 08:48:23;;;;;;;24.00;9.65;;;;;;;-4.04;65.15;98871.47;5015632;28;20056;-81
2022/01/28 08:50:50;;;;;;;25.48;9.48;;;;;;;-4.06;65.03;98852.66;4999912;28;20096;-81
2022/01/28 08:53:18;;;;;;;20.38;9.18;;;;;;;-4.30;64.75;98839.69;5015262;28;20052;-82
2022/01/28 08:55:45;;;;;;;22.48;9.00;;;;;;;-4.30;65.54;98862.63;5026293;28;20054;-82
2022/01/28 08:58:13;;;;;;;24.95;9.43;;;;;;;-4.36;66.18;98862.34;5017442;28;20136;-83
2022/01/28 09:00:42;;;;;;;22.38;9.70;;;;;;;-4.42;66.05;98845.06;4987969;28;20129;-83
2022/01/28 09:03:10;;;;;;;24.35;10.40;;;;;;;-4.26;65.86;98863.63;5017818;28;20053;-83
2022/01/28 09:05:37;;;;;;;25.65;10.07;;;;;;;-4.24;65.73;98851.81;5014931;28;20089;-82
2022/01/28 09:08:09;;;;;;;22.00;9.85;;;;;;;-4.03;65.59;98839.16;5002662;28;20049;-83
2022/01/28 09:10:41;;;;;;;24.65;9.80;;;;;;;-3.76;65.42;98849.72;4983585;28;20053;-84
2022/01/28 09:15:39;;;;;;;24.02;9.70;;;;;;;-3.76;64.63;98822.53;5018722;28;20196;-81
2022/01/28 09:18:09;;;;;;;22.83;9.38;;;;;;;-3.58;64.61;98840.28;4997191;28;20050;-81
2022/01/28 09:20:36;;;;;;;24.13;10.38;;;;;;;-3.66;64.49;98830.56;5014456;28;20144;-84
2022/01/28 09:23:04;;;;;;;23.45;10.25;;;;;;;-3.61;64.72;98841.88;5015492;28;20081;-85
2022/01/28 09:25:34;;;;;;;25.42;10.55;;;;;;;-3.60;64.85;98829.16;5016309;28;20532;-87
2022/01/28 09:28:02;;;;;;;26.42;10.55;;;;;;;-3.35;64.83;98837.88;5024204;28;20062;-85
2022/01/28 09:30:29;;;;;;;25.67;10.68;;;;;;;-3.55;64.75;98797.03;5017135;28;20648;-85
2022/01/28 09:32:58;;;;;;;24.20;9.90;;;;;;;-3.46;64.89;98845.06;4998805;28;20064;-84
2022/01/28 09:35:26;;;;;;;26.30;11.00;;;;;;;-3.43;65.08;98840.09;5016623;28;20145;-83
2022/01/28 09:37:54;;;;;;;23.77;10.35;;;;;;;-3.26;64.89;98833.13;5023052;28;20030;-88
2022/01/28 09:40:25;;;;;;;23.88;10.60;;;;;;;-3.35;64.56;98808.09;4983598;28;20057;-82
2022/01/28 09:42:52;;;;;;;26.05;11.15;;;;;;;-3.42;64.70;98812.84;5015117;28;20064;-81
2022/01/28 09:45:23;;;;;;;25.50;11.05;;;;;;;-3.43;65.33;98839.22;4998291;28;20050;-81
2022/01/28 09:47:53;;;;;;;22.70;10.98;;;;;;;-3.45;65.40;98828.94;5014550;28;20092;-83
2022/01/28 09:50:22;;;;;;;25.55;11.05;;;;;;;-3.40;65.29;98826.56;5016349;28;20140;-83
2022/01/28 09:52:51;;;;;;;27.15;11.55;;;;;;;-3.39;65.23;98828.31;5016246;28;20165;-83
2022/01/28 09:55:19;;;;;;;29.85;11.35;;;;;;;-3.33;65.12;98833.69;5016109;28;20540;-84
2022/01/28 09:57:51;;;;;;;28.02;11.80;;;;;;;-3.44;65.03;98794.03;4999389;28;20414;-83
2022/01/28 10:00:22;;;;;;;28.55;11.82;;;;;;;-3.44;65.32;98825.59;5030929;28;20059;-81
2022/01/28 10:02:59;;;;;;;32.50;12.45;;;;;;;-3.39;65.91;98833.44;5021002;28;20053;-82
2022/01/28 10:05:41;;;;;;;28.80;11.52;;;;;;;-3.40;64.90;98812.13;5031532;28;20082;-83
2022/01/28 10:08:26;;;;;;;29.27;12.18;;;;;;;-3.12;64.80;98805.59;5028596;28;20118;-82
2022/01/28 10:11:00;;;;;;;30.20;12.40;;;;;;;-2.75;63.80;98810.50;5012019;28;20136;-84
2022/01/28 10:16:10;;;;;;;30.25;11.38;;;;;;;-2.87;63.91;98807.44;5015603;28;20050;-82
2022/01/28 10:19:04;;;;;;;28.50;12.32;;;;;;;-3.11;64.39;98809.91;5015486;28;20045;-82
2022/01/28 10:21:36;;;;;;;28.00;12.02;;;;;;;-3.26;64.71;98805.03;5015561;28;20078;-85
2022/01/28 10:24:22;;;;;;;29.77;12.55;;;;;;;-3.30;64.85;98808.25;5021029;28;20050;-83
2022/01/28 10:27:05;;;;;;;31.45;13.73;;;;;;;-3.37;65.17;98822.47;5025741;28;20064;-82
2022/01/28 10:29:35;;;;;;;30.67;12.13;;;;;;;-3.63;65.37;98787.31;5026000;28;20053;-80
2022/01/28 10:32:06;;;;;;;31.80;11.60;;;;;;;-3.57;65.79;98811.41;5024551;28;20064;-84
2022/01/28 10:34:39;;;;;;;28.13;11.27;;;;;;;-3.69;65.64;98781.94;5021103;28;20293;-84
2022/01/28 10:37:25;;;;;;;28.55;12.82;;;;;;;-3.66;65.69;98811.00;5022740;28;20050;-82
2022/01/28 10:40:09;;;;;;;32.42;12.85;;;;;;;-3.62;65.59;98806.91;5034757;28;20084;-82
2022/01/28 10:42:37;;;;;;;30.42;12.32;;;;;;;-3.36;65.39;98796.09;5032326;28;20109;-81
2022/01/28 10:45:13;;;;;;;28.40;12.55;;;;;;;-3.32;64.88;98803.09;5030775;28;20046;-82
2022/01/28 10:47:43;;;;;;;29.30;12.43;;;;;;;-3.42;64.75;98792.44;5030540;28;20077;-81
2022/01/28 10:50:17;;;;;;;28.35;11.75;;;;;;;-3.68;65.47;98787.09;5029378;28;20089;-76
2022/01/28 10:52:48;;;;;;;27.73;12.07;;;;;;;-3.83;66.26;98797.56;5025841;28;20077;-80
2022/01/28 10:55:17;;;;;;;32.70;12.57;;;;;;;-3.77;66.08;98809.69;5018573;28;20526;-81
2022/01/28 10:58:03;;;;;;;31.95;12.48;;;;;;;-3.74;66.24;98795.38;4998259;28;20489;-82
2022/01/28 11:00:46;;;;;;;30.58;12.85;;;;;;;-3.55;65.73;98799.59;5014719;28;20071;-81
2022/01/28 11:03:16;;;;;;;27.63;11.77;;;;;;;-3.55;65.58;98781.72;5016709;28;20056;-81
2022/01/28 11:05:44;;;;;;;28.75;11.85;;;;;;;-3.67;65.69;98781.19;5015285;28;20494;-82
2022/01/28 11:08:13;;;;;;;28.00;12.63;;;;;;;-3.60;65.78;98793.41;5011807;28;20049;-83
2022/01/28 11:10:41;;;;;;;32.78;12.65;;;;;;;-3.49;65.73;98781.09;5013450;28;20058;-81
2022/01/28 11:13:09;;;;;;;27.60;11.73;;;;;;;-3.40;65.12;98773.84;5013332;28;20080;-82
2022/01/28 11:15:37;;;;;;;34.30;12.40;;;;;;;-3.53;65.31;98763.91;5013125;28;20133;-81
2022/01/28 11:18:08;;;;;;;35.05;11.95;;;;;;;-3.44;65.36;98781.28;5012843;28;20057;-82
2022/01/28 11:20:43;;;;;;;31.52;12.50;;;;;;;-3.55;65.23;98781.72;5014298;28;20064;-82
2022/01/28 11:23:31;;;;;;;32.05;13.25;;;;;;;-3.67;65.43;98786.31;5017626;28;20457;-81
2022/01/28 11:26:17;;;;;;;36.78;14.00;;;;;;;-3.63;65.75;98785.63;5017185;28;20045;-81
2022/01/28 11:28:47;;;;;;;32.08;13.27;;;;;;;-3.59;65.91;98774.75;4995179;28;20469;-83
2022/01/28 11:31:15;;;;;;;32.95;13.57;;;;;;;-3.74;65.56;98752.00;5013327;28;20050;-84
2022/01/28 11:33:50;;;;;;;32.22;12.38;;;;;;;-3.52;65.47;98771.63;5000670;28;20517;-82
2022/01/28 11:36:34;;;;;;;34.33;13.77;;;;;;;-3.52;65.63;98775.88;4995940;28;20081;-82
2022/01/28 11:39:18;;;;;;;30.25;13.32;;;;;;;-3.51;65.45;98778.50;5012156;28;20145;-82
2022/01/28 11:42:03;;;;;;;29.67;12.68;;;;;;;-3.52;65.47;98768.22;5012415;28;20058;-84
2022/01/28 11:44:57;;;;;;;30.55;13.98;;;;;;;-3.88;66.12;98776.03;5012382;28;20061;-81
2022/01/28 11:47:51;;;;;;;30.48;12.43;;;;;;;-3.96;66.29;98777.38;5009854;28;20046;-81
2022/01/28 11:50:22;;;;;;;34.13;14.45;;;;;;;-4.13;67.13;98781.75;5012145;28;20560;-82
2022/01/28 11:52:55;;;;;;;33.33;13.15;;;;;;;-4.07;66.81;98788.81;5004431;28;20038;-83
2022/01/28 11:55:26;;;;;;;32.97;13.73;;;;;;;-4.03;66.80;98789.00;4994502;28;20084;-83
2022/01/28 11:57:55;;;;;;;;;;;;;;;-4.09;66.94;98782.75;5012405;28;20053;-82
2022/01/28 12:00:23;;;;;;;36.25;14.93;;;;;;;-3.99;66.67;98793.44;5012214;28;19971;-83
2022/01/28 12:02:52;;;;;;;32.47;13.20;;;;;;;-3.92;66.90;98785.25;5012218;28;20093;-80
2022/01/28 12:05:30;;;;;;;37.22;14.75;;;;;;;-4.02;66.44;98760.16;4994276;28;20049;-82
2022/01/28 12:08:03;;;;;;;33.97;14.63;;;;;;;-4.01;66.42;98774.66;5011964;28;20050;-82
2022/01/28 12:10:33;;;;;;;32.30;13.82;;;;;;;-4.13;66.63;98786.84;5012237;28;20054;-80
2022/01/28 12:13:03;;;;;;;36.22;13.93;;;;;;;-4.17;66.90;98787.56;5010694;28;20104;-81
2022/01/28 12:15:57;;;;;;;35.38;15.30;;;;;;;-4.09;67.10;98782.75;5012326;28;20417;-82
2022/01/28 12:18:26;;;;;;;35.05;14.68;;;;;;;-4.12;67.17;98796.25;5012132;28;20104;-81
2022/01/28 12:20:58;;;;;;;33.53;13.85;;;;;;;-4.11;66.98;98780.13;5012006;28;20058;-82
2022/01/28 12:23:26;;;;;;;38.67;16.98;;;;;;;-4.10;66.92;98781.91;5013760;28;20100;-82
2022/01/28 12:25:56;;;;;;;38.33;15.15;;;;;;;-4.07;66.80;98797.31;5010483;28;20050;-84
2022/01/28 12:28:33;;;;;;;34.42;14.05;;;;;;;-4.16;66.54;98777.41;5017008;28;20085;-81
2022/01/28 12:31:14;;;;;;;36.00;14.00;;;;;;;-4.22;67.18;98776.25;5017753;28;20112;-83
2022/01/28 12:33:45;;;;;;;34.85;15.07;;;;;;;-4.32;67.65;98759.69;5017052;28;20054;-84
2022/01/28 12:36:15;;;;;;;36.08;14.18;;;;;;;-4.20;67.50;98782.28;5017381;28;20053;-82
2022/01/28 12:38:56;;;;;;;32.47;14.43;;;;;;;-4.25;67.58;98784.66;5000621;28;20042;-84
2022/01/28 12:41:25;;;;;;;33.13;15.02;;;;;;;-4.43;67.91;98765.97;5002993;28;20046;-80
2022/01/28 12:43:53;;;;;;;36.15;15.20;;;;;;;-4.29;67.86;98794.66;5019251;28;20053;-80
2022/01/28 12:46:24;;;;;;;33.25;14.30;;;;;;;-4.33;68.48;98803.81;5001648;28;20065;-82
2022/01/28 12:48:55;;;;;;;35.67;15.00;;;;;;;-4.40;68.46;98806.91;4984640;28;20482;-84
2022/01/28 12:51:23;;;;;;;35.67;14.50;;;;;;;-4.34;68.25;98804.63;4983221;28;20176;-82
2022/01/28 12:53:55;;;;;;;33.20;13.27;;;;;;;-4.36;68.72;98802.00;5016245;28;20433;-82
2022/01/28 12:56:48;;;;;;;36.63;15.02;;;;;;;-4.36;68.48;98793.50;5017277;28;20116;-82
2022/01/28 12:59:15;;;;;;;35.65;14.82;;;;;;;-4.40;68.48;98792.47;5012573;28;20061;-81
2022/01/28 13:01:51;;;;;;;40.15;15.32;;;;;;;-4.64;68.60;98753.13;5015484;28;20461;-83
2022/01/28 13:04:21;;;;;;;37.13;14.80;;;;;;;-4.62;68.24;98766.81;5017550;28;20493;-82
2022/01/28 13:09:17;;;;;;;39.38;15.38;;;;;;;-4.57;68.70;98785.75;5016729;28;19931;-81
2022/01/28 13:11:45;;;;;;;35.47;15.25;;;;;;;-4.62;68.81;98798.28;5015139;28;20057;-83
2022/01/28 13:14:14;;;;;;;38.55;15.48;;;;;;;-4.66;69.40;98793.84;5014964;28;20144;-81
2022/01/28 13:16:43;;;;;;;34.45;14.60;;;;;;;-4.81;69.25;98755.78;5015460;28;20058;-81
2022/01/28 13:19:13;;;;;;;40.85;16.15;;;;;;;-4.80;69.55;98752.41;5014364;28;20050;-82
2022/01/28 13:21:42;;;;;;;39.72;15.98;;;;;;;-4.57;69.08;98786.59;5015569;28;20049;-81